Time;durP1;ratioP1;P1;durP2;ratioP2;P2;SDS_P1;SDS_P2;PMS_P1;PMS_P2;Temp;Humidity;BMP_temperature;BMP_pressure;BME280_temperature;BME280_humidity;BME280_pressure;Samples;Min_cycle;Max_cycle;Signal;HPM_P1;HPM_P2
2022/05/26 00:01:39;;;;;;;;;2.00;1.00;;;;;17.71;56.18;101717.56;5131609;27;44984;-73
2022/05/26 00:04:04;;;;;;;;;1.00;1.00;;;;;17.59;56.55;101712.94;5103840;27;46530;-74
2022/05/26 00:06:30;;;;;;;;;2.00;0.67;;;;;17.69;56.42;101720.25;5103170;27;45355;-74
2022/05/26 00:08:56;;;;;;;;;1.00;1.00;;;;;17.71;57.07;101717.56;5096614;27;45305;-73
2022/05/26 00:11:32;;;;;;;;;2.00;1.00;;;;;17.28;56.64;101664.78;5096290;27;45407;-75
2022/05/26 00:14:01;;;;;;;;;1.67;0.00;;;;;17.54;57.19;101714.63;5095928;27;46539;-74
2022/05/26 00:16:26;;;;;;;;;3.00;2.00;;;;;17.61;57.03;101732.75;5096735;27;45509;-74
2022/05/26 00:18:52;;;;;;;;;2.33;1.00;;;;;17.58;57.30;101730.91;5105519;27;45399;-74
2022/05/26 00:21:18;;;;;;;;;1.00;1.00;;;;;16.90;57.19;101621.97;5127912;27;45030;-74
2022/05/26 00:23:43;;;;;;;;;1.00;1.00;;;;;17.53;57.06;101729.03;5111200;27;46752;-73
2022/05/26 00:26:09;;;;;;;;;1.33;0.00;;;;;17.53;57.36;101734.44;5105848;27;45403;-74
2022/05/26 00:28:34;;;;;;;;;0.00;0.00;;;;;17.49;57.48;101728.09;5099064;27;45578;-74
2022/05/26 00:31:01;;;;;;;;;1.33;0.00;;;;;17.35;57.49;101713.50;5113239;27;45194;-73
2022/05/26 00:33:27;;;;;;;;;3.67;1.67;;;;;17.15;57.47;101670.91;5099706;27;45825;-74
2022/05/26 00:35:52;;;;;;;;;2.33;2.00;;;;;17.54;57.45;101738.94;5115219;27;45211;-73
2022/05/26 00:38:18;;;;;;;;;6.00;1.00;;;;;16.91;57.54;101630.94;5126260;27;45207;-74
2022/05/26 00:40:45;;;;;;;;;2.67;1.00;;;;;17.30;57.15;101708.91;5123200;27;45305;-73
2022/05/26 00:43:11;;;;;;;;;1.00;0.00;;;;;17.46;57.68;101726.25;5114005;27;45536;-73
2022/05/26 00:45:54;;;;;;;;;2.00;1.00;;;;;17.47;57.43;101754.16;5096051;27;45327;-71
2022/05/26 00:48:24;;;;;;;;;0.00;0.00;;;;;17.44;56.97;101744.25;5097064;27;45659;-73
2022/05/26 00:51:00;;;;;;;;;2.00;0.00;;;;;17.41;56.54;101738.78;5097704;27;45484;-73
2022/05/26 00:53:34;;;;;;;;;1.00;1.00;;;;;17.31;56.83;101717.94;5115389;27;46332;-74
2022/05/26 00:56:24;;;;;;;;;0.67;0.67;;;;;17.47;56.75;101756.88;5101507;27;45365;-74
2022/05/26 00:58:57;;;;;;;;;0.00;0.00;;;;;17.50;56.27;101746.09;5089149;27;45375;-75
2022/05/26 01:01:22;;;;;;;;;2.67;0.00;;;;;17.48;56.18;101743.38;5102000;27;45480;-73
2022/05/26 01:03:58;;;;;;;;;0.67;0.00;;;;;17.45;56.52;101761.34;5096239;27;46454;-75
2022/05/26 01:06:33;;;;;;;;;0.00;0.00;;;;;17.45;56.43;101737.94;5105623;27;45358;-72
2022/05/26 01:09:01;;;;;;;;;1.00;1.00;;;;;17.54;55.97;101753.38;5126846;27;45247;-74
2022/05/26 01:11:30;;;;;;;;;2.00;1.00;;;;;17.61;55.83;101738.16;5131531;27;45578;-74
2022/05/26 01:14:00;;;;;;;;;0.00;0.00;;;;;17.61;55.69;101732.75;5122838;27;45596;-75
2022/05/26 01:16:45;;;;;;;;;0.00;0.00;;;;;17.60;55.58;101736.34;5112351;27;45285;-73
2022/05/26 01:19:44;;;;;;;;;0.67;0.67;;;;;17.60;55.77;101750.75;5113796;27;45312;-73
2022/05/26 01:22:39;;;;;;;;;0.00;0.00;;;;;17.37;56.37;101738.72;5107093;27;45301;-74
2022/05/26 01:25:38;;;;;;;;;1.00;1.00;;;;;17.43;56.73;101747.81;5092604;27;47935;-73
2022/05/26 01:28:34;;;;;;;;;1.00;1.00;;;;;17.39;56.62;101754.09;5111283;27;45427;-74
2022/05/26 01:31:15;;;;;;;;;0.33;0.33;;;;;17.32;57.38;101757.56;5126052;27;45115;-74
2022/05/26 01:33:47;;;;;;;;;1.00;1.00;;;;;17.29;57.08;101766.53;5120939;27;45259;-74
2022/05/26 01:36:27;;;;;;;;;0.00;0.00;;;;;17.29;57.36;101763.84;5135937;27;45500;-73
2022/05/26 01:39:05;;;;;;;;;1.00;0.00;;;;;17.38;57.30;101760.34;5117602;27;45317;-74
2022/05/26 01:41:58;;;;;;;;;1.33;0.67;;;;;17.43;57.06;101761.31;5115181;27;45035;-74
2022/05/26 01:44:42;;;;;;;;;1.00;0.00;;;;;17.51;56.99;101766.84;5114994;27;45439;-73
2022/05/26 01:47:33;;;;;;;;;0.00;0.00;;;;;17.48;57.94;101734.38;5110624;27;46483;-73
2022/05/26 01:50:16;;;;;;;;;1.00;1.00;;;;;17.63;58.47;101763.41;5120931;27;45368;-75
2022/05/26 01:52:57;;;;;;;;;0.00;0.00;;;;;17.57;59.23;101745.31;5103701;27;45567;-74
2022/05/26 01:55:35;;;;;;;;;1.00;0.00;;;;;17.60;59.18;101739.03;5111725;27;45258;-72
2022/05/26 01:58:13;;;;;;;;;3.00;1.00;;;;;17.69;59.12;101748.19;5106389;27;45463;-72
2022/05/26 02:00:39;;;;;;;;;1.00;1.00;;;;;17.72;58.84;101751.78;5107941;27;45306;-73
2022/05/26 02:03:11;;;;;;;;;1.00;1.00;;;;;17.67;59.16;101766.19;5098851;27;45309;-73
2022/05/26 02:05:46;;;;;;;;;0.00;0.00;;;;;17.62;57.79;101762.50;5098605;27;45284;-73
2022/05/26 02:08:14;;;;;;;;;2.67;1.00;;;;;17.65;58.73;101762.56;5115666;27;46921;-73
2022/05/26 02:11:07;;;;;;;;;0.00;0.00;;;;;17.68;58.46;101756.25;5116934;27;45459;-74
2022/05/26 02:13:50;;;;;;;;;2.33;0.00;;;;;17.50;58.20;101730.84;5114747;27;45380;-74
2022/05/26 02:16:24;;;;;;;;;1.00;1.00;;;;;17.64;58.57;101730.09;5114740;27;45493;-74
2022/05/26 02:18:55;;;;;;;;;1.00;1.00;;;;;17.44;57.40;101702.78;5117841;27;46997;-72
2022/05/26 02:21:36;;;;;;;;;2.67;0.00;;;;;17.67;57.62;101763.47;5117179;27;45454;-73
2022/05/26 02:24:15;;;;;;;;;1.00;1.00;;;;;17.63;57.69;101775.13;5118627;27;45819;-73
2022/05/26 02:26:41;;;;;;;;;0.33;0.33;;;;;17.50;57.67;101744.34;5117091;27;45773;-73
2022/05/26 02:32:03;;;;;;;;;1.33;0.33;;;;;17.30;57.78;101724.22;5072401;27;45452;-73
2022/05/26 02:34:29;;;;;;;;;1.00;0.67;;;;;17.13;57.82;101718.59;5100623;27;45168;-73
2022/05/26 02:36:58;;;;;;;;;4.67;1.00;;;;;17.34;57.74;101757.59;5111069;27;45242;-74
2022/05/26 02:39:23;;;;;;;;;0.00;0.00;;;;;17.46;57.95;101768.59;5107869;27;46687;-74
2022/05/26 02:41:52;;;;;;;;;1.00;1.00;;;;;17.41;58.33;101768.50;5104917;27;45354;-74
2022/05/26 02:44:17;;;;;;;;;1.00;1.00;;;;;17.31;59.40;101775.56;5112632;27;45089;-74
2022/05/26 02:47:01;;;;;;;;;1.00;1.00;;;;;17.35;59.65;101776.50;5111911;27;45280;-74
2022/05/26 02:49:35;;;;;;;;;0.67;0.67;;;;;17.41;59.06;101773.00;5105412;27;46279;-74
2022/05/26 02:52:19;;;;;;;;;2.00;1.00;;;;;17.39;58.88;101770.28;5103462;27;45407;-74
2022/05/26 02:55:03;;;;;;;;;1.00;1.00;;;;;17.42;60.14;101791.94;5114033;27;45793;-74
2022/05/26 02:57:41;;;;;;;;;1.33;1.33;;;;;17.48;60.41;101786.63;5103501;27;45420;-74
2022/05/26 03:00:15;;;;;;;;;2.00;1.00;;;;;17.50;61.11;101781.22;5122886;27;45934;-74
2022/05/26 03:02:54;;;;;;;;;1.33;1.33;;;;;17.48;60.65;101777.63;5118809;27;45385;-74
2022/05/26 03:05:25;;;;;;;;;1.00;1.00;;;;;17.43;61.62;101768.53;5120466;27;45450;-74
2022/05/26 03:07:54;;;;;;;;;1.00;1.00;;;;;17.53;61.75;101775.88;5131817;27;45395;-74
2022/05/26 03:10:31;;;;;;;;;0.00;0.00;;;;;17.54;61.43;101779.47;5128708;27;45599;-72
2022/05/26 03:13:01;;;;;;;;;0.00;0.00;;;;;17.45;61.79;101758.66;5121381;27;45427;-74
2022/05/26 03:15:29;;;;;;;;;2.00;1.00;;;;;17.21;61.94;101721.38;5119319;27;45111;-73
2022/05/26 03:17:55;;;;;;;;;0.00;0.00;;;;;17.25;62.30;101743.06;5107389;27;45064;-73
2022/05/26 03:20:21;;;;;;;;;0.67;0.00;;;;;17.45;62.14;101778.47;5108744;27;45312;-73
2022/05/26 03:22:49;;;;;;;;;0.00;0.00;;;;;17.41;62.16;101775.72;5098382;27;45308;-73
2022/05/26 03:25:15;;;;;;;;;0.33;0.33;;;;;17.23;61.91;101752.94;5102854;27;45549;-75
2022/05/26 03:27:40;;;;;;;;;3.00;1.00;;;;;17.26;62.49;101752.09;5098077;27;45613;-72
2022/05/26 03:30:06;;;;;;;;;2.00;0.00;;;;;17.35;61.97;101781.91;5097580;27;45520;-73
2022/05/26 03:32:31;;;;;;;;;1.00;1.00;;;;;17.31;62.47;101786.38;5098144;27;45533;-74
2022/05/26 03:43:10;;;;;;;;;0.00;0.00;;;;;16.94;63.95;101779.47;5108786;27;45601;-75
2022/05/26 03:45:36;;;;;;;;;2.00;0.00;;;;;17.18;64.09;101803.28;5107026;27;45396;-74
2022/05/26 03:48:03;;;;;;;;;1.67;1.00;;;;;17.19;65.07;101802.41;5096046;27;45346;-75
2022/05/26 03:50:29;;;;;;;;;0.67;0.67;;;;;17.17;64.33;101787.94;5112450;27;45546;-74
2022/05/26 03:52:55;;;;;;;;;0.00;0.00;;;;;17.05;64.49;101769.75;5096609;27;45318;-73
2022/05/26 03:55:22;;;;;;;;;0.00;0.00;;;;;17.18;64.50;101799.69;5100740;27;45220;-73
2022/05/26 03:57:48;;;;;;;;;1.00;0.00;;;;;16.86;65.02;101749.66;5096113;27;45293;-73
2022/05/26 04:00:15;;;;;;;;;0.00;0.00;;;;;17.00;65.03;101784.97;5095950;27;46019;-74
2022/05/26 04:02:41;;;;;;;;;0.00;0.00;;;;;16.77;64.08;101758.47;5108849;27;45646;-75
2022/05/26 04:05:08;;;;;;;;;0.00;0.00;;;;;16.76;64.53;101778.25;5118542;27;45375;-74
2022/05/26 04:07:34;;;;;;;;;0.00;0.00;;;;;16.80;64.54;101781.00;5114116;27;45446;-74
2022/05/26 04:10:04;;;;;;;;;0.00;0.00;;;;;16.72;63.76;101783.56;5110877;27;46255;-73
2022/05/26 04:12:30;;;;;;;;;0.67;0.00;;;;;16.82;63.43;101811.63;5132174;27;45351;-74
2022/05/26 04:14:55;;;;;;;;;1.00;1.00;;;;;16.58;63.57;101794.09;5064755;27;45489;-73
2022/05/26 04:17:21;;;;;;;;;0.33;0.33;;;;;16.36;63.22;101768.50;5121419;27;45681;-73
2022/05/26 04:19:46;;;;;;;;;1.00;1.00;;;;;16.35;64.24;101786.50;5117836;27;45493;-72
2022/05/26 04:22:15;;;;;;;;;0.67;0.33;;;;;16.55;64.83;101824.63;5105060;27;45449;-73
2022/05/26 04:24:41;;;;;;;;;3.33;3.33;;;;;16.40;64.51;101783.91;5103230;27;45451;-73
2022/05/26 04:27:07;;;;;;;;;1.33;1.00;;;;;16.55;64.39;101815.66;5125019;27;45115;-73
2022/05/26 04:29:33;;;;;;;;;4.00;1.00;;;;;16.49;64.53;101812.81;5128515;27;45526;-73
2022/05/26 04:31:59;;;;;;;;;1.33;1.00;;;;;16.42;64.00;101825.28;5115788;27;45478;-75
2022/05/26 04:34:25;;;;;;;;;1.67;0.00;;;;;16.45;64.45;101828.03;5115493;27;45479;-73
2022/05/26 04:36:50;;;;;;;;;2.00;1.00;;;;;16.51;65.04;101830.84;5116133;27;45468;-74
2022/05/26 04:39:16;;;;;;;;;0.67;0.67;;;;;16.52;64.56;101837.16;5096817;27;45919;-74
2022/05/26 04:41:43;;;;;;;;;3.00;1.00;;;;;16.33;64.42;101812.53;5094870;27;45299;-74
2022/05/26 04:44:16;;;;;;;;;0.33;0.33;;;;;16.48;64.10;101837.97;5129007;27;44914;-73
2022/05/26 04:46:41;;;;;;;;;0.00;0.00;;;;;16.34;63.49;101833.22;5128621;27;45089;-75
2022/05/26 04:49:07;;;;;;;;;1.67;0.00;;;;;16.47;63.94;101846.97;5132652;27;45660;-72
2022/05/26 04:51:36;;;;;;;;;1.00;0.67;;;;;16.21;63.84;101801.50;5114529;27;45447;-73
2022/05/26 04:54:04;;;;;;;;;3.67;0.33;;;;;16.39;63.66;101822.53;5106540;27;44878;-73
2022/05/26 04:56:30;;;;;;;;;1.67;1.00;;;;;16.32;63.96;101824.19;5115669;27;45554;-73
2022/05/26 04:58:55;;;;;;;;;3.33;2.33;;;;;16.48;63.68;101848.75;5117407;27;45872;-73
2022/05/26 05:01:21;;;;;;;;;0.33;0.33;;;;;16.49;63.95;101858.69;5108403;27;45291;-72
2022/05/26 05:03:47;;;;;;;;;1.00;1.00;;;;;16.48;63.31;101855.09;5100154;27;45291;-74
2022/05/26 05:06:14;;;;;;;;;1.00;1.00;;;;;16.39;63.65;101839.59;5096363;27;45548;-74
2022/05/26 05:08:41;;;;;;;;;4.00;2.00;;;;;16.15;63.22;101794.19;5098080;27;45432;-72
2022/05/26 05:11:07;;;;;;;;;2.67;1.00;;;;;16.52;63.77;101854.25;5100266;27;45448;-74
2022/05/26 05:13:32;;;;;;;;;1.67;0.67;;;;;16.43;63.08;101828.88;5115372;27;45456;-73
2022/05/26 05:16:03;;;;;;;;;2.00;1.67;;;;;16.50;62.82;101834.44;5121167;27;45009;-72
2022/05/26 05:18:30;;;;;;;;;2.33;1.00;;;;;16.66;62.73;101867.09;5110224;27;45513;-74
2022/05/26 05:20:59;;;;;;;;;2.67;1.00;;;;;16.55;62.95;101853.41;5110288;27;45362;-75
2022/05/26 05:23:24;;;;;;;;;0.00;0.00;;;;;16.42;62.79;101821.69;5104465;27;45447;-73
2022/05/26 05:25:53;;;;;;;;;0.67;0.67;;;;;16.66;62.47;101865.28;5110849;27;45314;-73
2022/05/26 05:28:25;;;;;;;;;4.00;3.33;;;;;16.64;62.33;101871.56;5108475;27;45526;-73
2022/05/26 05:30:56;;;;;;;;;3.00;3.00;;;;;16.66;61.81;101869.78;5105020;27;45568;-74
2022/05/26 05:33:29;;;;;;;;;6.67;3.33;;;;;16.66;61.77;101878.78;5100115;27;45511;-72
2022/05/26 05:36:05;;;;;;;;;3.33;2.00;;;;;16.42;61.88;101838.78;5126985;27;45086;-73
2022/05/26 05:38:32;;;;;;;;;2.00;2.00;;;;;16.45;62.30;101836.13;5114517;27;45653;-73
2022/05/26 05:40:57;;;;;;;;;0.67;0.67;;;;;16.74;61.96;101873.56;5133084;27;45111;-73
2022/05/26 05:43:23;;;;;;;;;1.67;1.00;;;;;16.33;61.63;101807.13;5127959;27;45302;-74
2022/05/26 05:45:48;;;;;;;;;2.00;1.00;;;;;16.62;61.49;101849.94;5100080;27;45345;-73
2022/05/26 05:48:13;;;;;;;;;3.67;1.00;;;;;16.55;61.64;101835.44;5112137;27;45317;-74
2022/05/26 05:50:39;;;;;;;;;3.33;2.00;;;;;16.74;61.37;101873.56;5102864;27;45525;-72
2022/05/26 05:53:06;;;;;;;;;2.00;1.00;;;;;16.68;61.69;101860.88;5116389;27;45432;-74
2022/05/26 05:55:31;;;;;;;;;0.33;0.33;;;;;16.65;61.21;101866.19;5126720;27;45187;-73
2022/05/26 05:57:57;;;;;;;;;0.00;0.00;;;;;16.85;61.32;101893.59;5125445;27;45300;-72
2022/05/26 06:00:23;;;;;;;;;1.00;1.00;;;;;16.93;61.60;101885.66;5131434;27;45081;-72
2022/05/26 06:02:48;;;;;;;;;3.00;1.33;;;;;17.02;60.63;101891.19;5112657;27;45181;-73
2022/05/26 06:05:13;;;;;;;;;0.33;0.33;;;;;16.82;60.02;101853.00;5112983;27;45372;-73
2022/05/26 06:07:41;;;;;;;;;0.00;0.00;;;;;17.10;60.42;101894.03;5114940;27;45890;-74
2022/05/26 06:10:10;;;;;;;;;1.00;0.33;;;;;17.15;60.13;101899.53;5121654;27;45082;-74
2022/05/26 06:12:35;;;;;;;;;1.00;0.00;;;;;17.10;60.06;101899.44;5125007;27;45187;-74
2022/05/26 06:15:01;;;;;;;;;0.00;0.00;;;;;17.07;59.66;101897.59;5131239;27;45288;-72
2022/05/26 06:17:26;;;;;;;;;2.67;1.33;;;;;17.05;59.97;101904.75;5134329;27;45268;-73
2022/05/26 06:19:52;;;;;;;;;2.00;1.00;;;;;17.00;59.82;101902.88;5133742;27;45080;-71
2022/05/26 06:22:20;;;;;;;;;0.00;0.00;;;;;16.99;59.48;101899.25;5115960;27;45066;-71
2022/05/26 06:24:47;;;;;;;;;0.33;0.33;;;;;16.87;59.59;101866.63;5121535;27;45186;-71
2022/05/26 06:30:00;;;;;;;;;0.00;0.00;;;;;17.36;59.73;101908.00;5132976;27;45138;-73
2022/05/26 06:37:57;;;;;;;;;0.67;0.00;;;;;17.55;58.64;101936.22;5114865;27;45498;-72
2022/05/26 06:40:22;;;;;;;;;3.00;1.33;;;;;17.39;60.07;101913.47;5125988;27;45042;-73
2022/05/26 06:42:49;;;;;;;;;0.00;0.00;;;;;17.66;59.75;101948.13;5091470;27;45575;-72
2022/05/26 06:45:16;;;;;;;;;4.33;4.33;;;;;17.76;60.54;101956.41;5119791;27;45064;-74
2022/05/26 06:47:42;;;;;;;;;1.33;1.33;;;;;17.68;59.25;101929.22;5111273;27;45830;-74
2022/05/26 06:50:08;;;;;;;;;1.67;1.00;;;;;17.83;59.25;101952.91;5091894;27;45326;-73
2022/05/26 06:52:34;;;;;;;;;3.67;2.67;;;;;17.95;58.87;101950.44;5098272;27;45563;-75
2022/05/26 06:55:02;;;;;;;;;0.67;0.00;;;;;17.89;58.66;101927.81;5106526;27;45405;-74
2022/05/26 06:57:27;;;;;;;;;0.00;0.00;;;;;17.92;58.32;101922.41;5101495;27;45435;-74
2022/05/26 06:59:53;;;;;;;;;2.33;0.67;;;;;18.10;57.77;101938.00;5100903;27;45318;-74
2022/05/26 07:02:18;;;;;;;;;0.00;0.00;;;;;18.37;57.47;101949.22;5099033;27;45394;-74
2022/05/26 07:04:44;;;;;;;;;0.00;0.00;;;;;18.35;55.51;101936.56;5112361;27;45445;-74
2022/05/26 07:07:15;;;;;;;;;2.00;2.00;;;;;18.15;55.59;101925.44;5134179;27;45064;-74
2022/05/26 07:09:41;;;;;;;;;0.00;0.00;;;;;18.33;55.83;101949.16;5129730;27;44982;-74
2022/05/26 07:12:07;;;;;;;;;1.33;0.33;;;;;18.31;56.23;101956.34;5114304;27;45040;-73
2022/05/26 07:14:33;;;;;;;;;3.67;0.00;;;;;18.18;56.19;101952.53;5127049;27;45008;-73
2022/05/26 07:16:58;;;;;;;;;2.00;2.00;;;;;18.21;56.92;101976.94;5108728;27;46215;-73
2022/05/26 07:19:23;;;;;;;;;2.00;1.00;;;;;17.88;57.95;101948.50;5105380;27;45544;-73
2022/05/26 07:21:49;;;;;;;;;0.33;0.33;;;;;17.85;59.66;101949.34;5110707;27;45487;-72
2022/05/26 07:24:20;;;;;;;;;0.00;0.00;;;;;17.71;60.57;101942.81;5124505;27;45279;-73
2022/05/26 07:26:47;;;;;;;;;0.00;0.00;;;;;17.82;61.33;101976.31;5113096;27;45525;-73
2022/05/26 07:29:14;;;;;;;;;1.00;0.00;;;;;17.83;61.96;101988.94;5105687;27;45305;-73
2022/05/26 07:31:40;;;;;;;;;1.00;1.00;;;;;17.77;62.02;101991.56;5113356;27;45439;-73
2022/05/26 07:34:05;;;;;;;;;0.33;0.33;;;;;17.70;62.29;101973.41;5114373;27;45066;-72
2022/05/26 07:42:03;;;;;;;;;1.67;0.00;;;;;17.84;61.43;101970.94;5110705;27;45464;-73
2022/05/26 07:44:31;;;;;;;;;1.00;0.00;;;;;17.92;60.66;101960.25;5122709;27;45211;-73
2022/05/26 07:46:57;;;;;;;;;8.67;8.67;;;;;18.17;60.32;101975.09;5132533;27;45623;-73
2022/05/26 07:49:23;;;;;;;;;2.00;2.00;;;;;18.47;60.17;101995.34;5119800;27;45560;-73
2022/05/26 07:51:48;;;;;;;;;0.00;0.00;;;;;17.92;58.84;101914.31;5123199;27;45286;-73
2022/05/26 07:54:14;;;;;;;;;0.00;0.00;;;;;18.11;59.50;101965.06;5112646;27;45538;-74
2022/05/26 07:56:39;;;;;;;;;1.00;1.00;;;;;18.03;60.46;101993.78;5109729;27;45575;-73
2022/05/26 07:59:06;;;;;;;;;0.00;0.00;;;;;18.06;62.42;102015.47;5123768;27;45369;-73
2022/05/26 08:01:33;;;;;;;;;0.00;0.00;;;;;18.07;61.85;102020.03;5121436;27;44989;-73
2022/05/26 08:03:58;;;;;;;;;0.67;0.67;;;;;17.57;61.69;101938.97;5122562;27;45075;-73
2022/05/26 08:06:24;;;;;;;;;11.00;9.50;;;;;17.98;61.91;102003.63;5132696;27;45064;-72
2022/05/26 08:08:49;;;;;;;;;16.75;13.50;;;;;17.98;61.10;102006.34;5131830;27;45280;-72
2022/05/26 08:11:15;;;;;;;;;2.00;2.00;;;;;18.00;60.83;102020.78;5123334;27;45137;-73
2022/05/26 08:13:40;;;;;;;;;4.00;2.00;;;;;17.82;61.51;101978.13;5114191;27;45150;-73
2022/05/26 08:16:06;;;;;;;;;8.33;8.33;;;;;18.13;60.95;102020.13;5115525;27;45437;-72
2022/05/26 08:18:32;;;;;;;;;2.00;2.00;;;;;18.26;59.61;102029.31;5120385;27;45601;-72
2022/05/26 08:21:06;;;;;;;;;2.33;2.00;;;;;18.34;58.71;102051.09;5133672;27;45357;-72
2022/05/26 08:23:31;;;;;;;;;3.00;3.00;;;;;18.20;58.32;102034.66;5113064;27;45100;-72
2022/05/26 08:25:56;;;;;;;;;4.67;2.00;;;;;18.15;58.28;102039.97;5116194;27;45838;-72
2022/05/26 08:28:22;;;;;;;;;3.00;2.00;;;;;17.97;58.39;102009.94;5121766;27;45063;-73
2022/05/26 08:30:48;;;;;;;;;3.33;1.00;;;;;17.96;58.11;102019.84;5114018;27;44970;-73
2022/05/26 08:33:13;;;;;;;;;2.33;1.00;;;;;18.13;57.76;102048.94;5112445;27;45126;-73
2022/05/26 08:35:39;;;;;;;;;2.00;2.00;;;;;18.03;58.13;102032.59;5126593;27;45465;-72
2022/05/26 08:38:04;;;;;;;;;3.33;2.00;;;;;18.16;57.87;102047.19;5123813;27;45266;-73
2022/05/26 08:40:36;;;;;;;;;3.00;3.00;;;;;18.13;57.73;102035.41;5127650;27;46370;-73
2022/05/26 08:43:05;;;;;;;;;4.00;2.67;;;;;18.25;57.76;102051.88;5092351;27;45191;-73
2022/05/26 08:45:33;;;;;;;;;3.00;3.00;;;;;18.20;57.09;102045.47;5119730;27;45825;-73
2022/05/26 08:47:59;;;;;;;;;16.50;16.50;;;;;18.19;56.96;102038.22;5123340;27;45256;-74
2022/05/26 08:50:34;;;;;;;;;7.67;5.67;;;;;18.14;56.79;102012.91;5076675;27;45229;-71
2022/05/26 08:53:06;;;;;;;;;2.00;2.00;;;;;18.48;55.22;102052.22;5112638;27;45062;-71
2022/05/26 08:55:53;;;;;;;;;8.33;7.00;;;;;18.65;56.58;102051.53;5125770;27;45254;-73
2022/05/26 08:58:24;;;;;;;;;4.00;3.00;;;;;18.70;55.57;102038.97;5111511;27;45145;-72
2022/05/26 09:00:51;;;;;;;;;3.00;3.00;;;;;18.77;55.49;102028.22;5127559;27;45242;-73
2022/05/26 09:03:17;;;;;;;;;3.67;2.00;;;;;19.10;54.29;102059.38;5115136;27;45216;-72
2022/05/26 09:05:45;;;;;;;;;4.00;3.00;;;;;19.21;54.59;102066.75;5112540;27;45117;-71
2022/05/26 09:13:56;;;;;;;;;1.33;1.33;;;;;19.33;51.97;102056.03;5122511;27;45417;-73
2022/05/26 09:16:22;;;;;;;;;3.00;2.00;;;;;19.13;52.20;102021.47;5120512;27;45261;-74
2022/05/26 09:19:07;;;;;;;;;2.00;2.00;;;;;19.50;52.46;102058.91;5118402;27;44988;-72
2022/05/26 09:21:32;;;;;;;;;4.00;2.67;;;;;19.35;51.36;102008.16;5123968;27;45109;-74
2022/05/26 09:24:19;;;;;;;;;1.67;1.67;;;;;19.59;51.12;102058.13;5134392;27;45050;-72
2022/05/26 09:27:06;;;;;;;;;1.00;1.00;;;;;19.38;50.88;102019.03;5133644;27;45682;-72
2022/05/26 09:29:37;;;;;;;;;3.33;3.33;;;;;19.52;51.22;102043.59;5133514;27;44928;-75
2022/05/26 09:32:05;;;;;;;;;2.33;2.00;;;;;19.68;51.45;102059.13;5131451;27;45070;-73
2022/05/26 09:34:33;;;;;;;;;2.67;2.00;;;;;19.80;51.01;102062.84;5132195;27;45273;-72
2022/05/26 09:37:03;;;;;;;;;2.67;2.00;;;;;19.95;50.70;102068.44;5132039;27;45763;-73
2022/05/26 09:39:37;;;;;;;;;20.50;19.00;;;;;20.13;50.55;102072.16;5131589;27;45078;-74
2022/05/26 09:42:27;;;;;;;;;2.00;2.00;;;;;20.27;49.68;102075.91;5113806;27;45142;-72
2022/05/26 09:45:06;;;;;;;;;3.00;2.00;;;;;19.88;49.50;101987.88;5122595;27;45335;-74
2022/05/26 09:47:44;;;;;;;;;3.00;3.00;;;;;19.78;48.69;101970.66;5127040;27;45186;-74
2022/05/26 09:50:32;;;;;;;;;4.33;4.33;;;;;20.33;48.25;102061.50;5131456;27;45260;-76
2022/05/26 09:52:58;;;;;;;;;1.33;1.33;;;;;20.24;48.09;102057.81;5131643;27;45123;-74
2022/05/26 09:55:48;;;;;;;;;4.33;4.33;;;;;20.34;48.50;102087.72;5135331;27;45278;-72
2022/05/26 09:58:28;;;;;;;;;4.00;2.33;;;;;20.31;48.60;102085.91;5131438;27;45661;-72
2022/05/26 10:00:55;;;;;;;;;3.67;3.00;;;;;20.25;48.04;102089.47;5134888;27;45140;-73
2022/05/26 10:03:36;;;;;;;;;3.00;2.33;;;;;20.22;48.23;102091.25;5127781;27;44905;-73
2022/05/26 10:06:26;;;;;;;;;2.00;2.00;;;;;20.16;47.92;102097.56;5135367;27;45035;-74
2022/05/26 10:09:09;;;;;;;;;3.00;3.00;;;;;19.94;47.81;102044.91;5129087;27;45620;-73
2022/05/26 10:11:40;;;;;;;;;2.00;2.00;;;;;20.00;47.54;102039.53;5116859;27;45263;-76
2022/05/26 10:14:26;;;;;;;;;5.00;5.00;;;;;20.28;47.72;102069.59;5123908;27;45527;-71
2022/05/26 10:16:54;;;;;;;;;3.00;3.00;;;;;20.56;47.00;102088.78;5127988;27;45163;-70
2022/05/26 10:19:47;;;;;;;;;3.00;2.33;;;;;20.56;47.40;102076.13;5127202;27;45433;-73
2022/05/26 10:22:21;;;;;;;;;10.67;10.67;;;;;20.73;46.58;102094.34;5113330;27;45156;-69
2022/05/26 10:24:50;;;;;;;;;13.33;12.00;;;;;20.84;46.42;102094.41;5114224;27;45024;-69
2022/05/26 10:27:43;;;;;;;;;1.67;1.67;;;;;20.92;46.50;102087.19;5112467;27;45211;-68
2022/05/26 10:30:31;;;;;;;;;3.00;3.00;;;;;21.01;45.81;102089.06;5129692;27;45587;-71
2022/05/26 10:33:27;;;;;;;;;2.67;2.67;;;;;21.13;46.22;102084.56;5108891;27;45252;-71
2022/05/26 10:35:55;;;;;;;;;2.00;2.00;;;;;21.30;45.97;102086.44;5119668;27;45311;-68
2022/05/26 10:38:23;;;;;;;;;6.33;4.67;;;;;21.40;45.57;102084.66;5114532;27;45505;-74
2022/05/26 10:41:09;;;;;;;;;0.00;0.00;;;;;21.34;44.97;102088.28;5117752;27;45499;-72
2022/05/26 10:43:46;;;;;;;;;4.00;4.00;;;;;21.22;45.06;102082.78;5121896;27;45480;-70
2022/05/26 10:46:12;;;;;;;;;2.00;2.00;;;;;21.07;45.11;102067.34;5109312;27;45469;-71
2022/05/26 10:48:53;;;;;;;;;5.00;4.00;;;;;21.10;45.24;102064.63;5113876;27;45303;-70
2022/05/26 10:51:36;;;;;;;;;2.33;2.33;;;;;21.40;44.50;102082.88;5114336;27;45395;-68
2022/05/26 10:54:14;;;;;;;;;3.00;1.67;;;;;21.58;44.19;102092.94;5114279;27;45114;-68
2022/05/26 10:56:52;;;;;;;;;1.33;1.33;;;;;21.54;44.02;102091.09;5113325;27;45029;-72
2022/05/26 10:59:36;;;;;;;;;3.00;3.00;;;;;21.51;44.61;102089.28;5112097;27;45304;-69
2022/05/26 11:02:51;;;;;;;;;3.67;3.67;;;;;21.41;44.54;102083.78;5122203;27;45609;-69
2022/05/26 11:05:21;;;;;;;;;1.00;1.00;;;;;21.21;44.26;102068.31;5108859;27;45215;-72
2022/05/26 11:07:52;;;;;;;;;2.67;2.67;;;;;21.25;43.69;102082.81;5115850;27;45141;-69
2022/05/26 11:10:48;;;;;;;;;2.00;1.00;;;;;21.20;43.60;102084.59;5117543;27;45204;-68
2022/05/26 11:13:19;;;;;;;;;1.00;1.00;;;;;21.09;43.05;102077.31;5120423;27;45464;-70
2022/05/26 11:18:54;;;;;;;;;1.00;1.00;;;;;21.27;42.92;102072.88;5121869;27;44937;-72
2022/05/26 11:21:21;;;;;;;;;2.00;2.00;;;;;21.35;42.99;102046.63;5113535;27;45395;-72
2022/05/26 11:23:48;;;;;;;;;1.33;1.33;;;;;21.65;42.03;102063.94;5109642;27;45335;-72
2022/05/26 11:26:20;;;;;;;;;2.67;1.00;;;;;21.70;42.33;102056.69;5113687;27;45380;-72
2022/05/26 11:29:00;;;;;;;;;3.00;3.00;;;;;21.72;42.49;102058.47;5119529;27;45367;-69
2022/05/26 11:37:23;;;;;;;;;1.67;1.67;;;;;21.84;43.16;101996.81;5133248;27;44973;-73
2022/05/26 11:39:54;;;;;;;;;6.00;4.00;;;;;21.88;43.47;101998.66;5127447;27;45219;-71
2022/05/26 11:42:32;;;;;;;;;2.33;1.00;;;;;22.37;42.72;102066.69;5131435;27;45221;-73
2022/05/26 11:45:16;;;;;;;;;2.00;2.00;;;;;22.28;42.88;102058.47;5127798;27;45279;-70
2022/05/26 11:47:56;;;;;;;;;7.00;5.33;;;;;22.32;42.95;102067.59;5116049;27;45138;-72
2022/05/26 11:50:47;;;;;;;;;1.00;1.00;;;;;22.35;42.90;102063.03;5115402;27;45265;-70
2022/05/26 11:53:34;;;;;;;;;3.67;1.67;;;;;22.22;43.11;102064.84;5118914;27;44971;-74
2022/05/26 11:56:28;;;;;;;;;1.00;1.00;;;;;22.05;43.78;102070.28;5091508;27;47421;-72
2022/05/26 11:59:20;;;;;;;;;2.00;2.00;;;;;21.99;44.36;102064.88;5116944;27;45087;-73
2022/05/26 12:02:06;;;;;;;;;2.00;2.00;;;;;22.07;43.84;102068.47;5095042;27;45116;-75
2022/05/26 12:04:35;;;;;;;;;0.00;0.00;;;;;21.72;43.54;102016.78;5082729;27;45341;-71
2022/05/26 12:07:03;;;;;;;;;1.00;1.00;;;;;22.03;43.31;102069.38;5119383;27;45695;-71
2022/05/26 12:09:41;;;;;;;;;1.00;1.00;;;;;21.75;43.33;102030.38;5115302;27;45362;-72
2022/05/26 12:12:08;;;;;;;;;2.00;2.00;;;;;21.67;43.27;102029.47;5098487;27;46194;-70
2022/05/26 12:14:42;;;;;;;;;4.00;2.00;;;;;21.84;43.31;102054.84;5110899;27;45299;-71
2022/05/26 12:17:45;;;;;;;;;1.33;0.33;;;;;21.85;43.71;102061.22;5109658;27;46675;-72
2022/05/26 12:20:11;;;;;;;;;0.00;0.00;;;;;21.89;43.11;102057.59;5126081;27;45140;-71
2022/05/26 12:23:04;;;;;;;;;1.00;1.00;;;;;22.01;43.16;102052.16;5132677;27;45006;-74
2022/05/26 12:25:39;;;;;;;;;5.33;3.67;;;;;22.11;42.74;102039.47;5132626;27;45194;-71